Watauga Observed Data For Previous 48 Hours

Caption
Day and Hour Reservoir Elevation (behind dam)* Tailwater Elevation (below dam)* Average Hourly Discharge*
9/21/2017 2 AM EDT 1,951.64 1,648.29 16
9/21/2017 3 AM EDT 1,951.64 1,650.23 1,222
9/21/2017 4 AM EDT 1,951.64 1,648.71 51
9/21/2017 5 AM EDT 1,951.64 1,648.31 0
9/21/2017 6 AM EDT 1,951.64 1,647.99 0
9/21/2017 7 AM EDT 1,951.64 1,648.36 25
9/21/2017 8 AM EDT 1,951.64 1,650.26 1,229
9/21/2017 9 AM EDT 1,951.64 1,648.73 48
9/21/2017 10 AM EDT 1,951.64 1,648.35 0
9/21/2017 11 AM EDT 1,951.64 1,648.00 0
9/21/2017 12 PM EDT 1,951.64 1,648.38 27
9/21/2017 1 PM EDT 1,951.64 1,650.23 1,230
9/21/2017 2 PM EDT 1,951.64 1,648.70 49
9/21/2017 3 PM EDT 1,951.64 1,648.15 0
9/21/2017 4 PM EDT 1,951.64 1,647.73 0
9/21/2017 5 PM EDT 1,951.64 1,648.27 28
9/21/2017 6 PM EDT 1,951.64 1,650.23 1,229
9/21/2017 7 PM EDT 1,951.64 1,648.48 49
9/21/2017 8 PM EDT 1,951.64 1,648.07 0
9/21/2017 9 PM EDT 1,951.64 1,647.78 0
9/21/2017 10 PM EDT 1,951.64 1,648.31 37
9/21/2017 11 PM EDT 1,951.64 1,650.25 1,228
9/22/2017 12 AM EDT 1,951.64 1,648.50 49
9/22/2017 1 AM EDT 1,951.64 1,648.09 0
9/22/2017 2 AM EDT 1,951.64 1,647.78 0
9/22/2017 3 AM EDT 1,951.64 1,648.29 29
9/22/2017 4 AM EDT 1,951.64 1,650.26 1,234
9/22/2017 5 AM EDT 1,951.64 1,648.53 48
9/22/2017 6 AM EDT 1,951.64 1,648.13 0
9/22/2017 7 AM EDT 1,951.64 1,647.83 0
9/22/2017 8 AM EDT 1,951.64 1,648.29 26
9/22/2017 9 AM EDT 1,951.64 1,650.25 1,232
9/22/2017 10 AM EDT 1,951.64 1,648.56 47
9/22/2017 11 AM EDT 1,951.64 1,648.15 0
9/22/2017 12 PM EDT 1,951.64 1,647.84 0
9/22/2017 1 PM EDT 1,951.64 1,648.25 26
9/22/2017 2 PM EDT 1,951.64 1,650.22 1,231
9/22/2017 3 PM EDT 1,951.64 1,648.55 46
9/22/2017 4 PM EDT 1,951.64 1,648.14 0
9/22/2017 5 PM EDT 1,951.64 1,647.83 0
9/22/2017 6 PM EDT 1,951.64 1,648.41 42
9/22/2017 7 PM EDT 1,951.64 1,650.24 1,231
9/22/2017 8 PM EDT 1,951.64 1,648.56 46
9/22/2017 9 PM EDT 1,951.64 1,648.16 0
9/22/2017 10 PM EDT 1,951.64 1,647.84 0
9/22/2017 11 PM EDT 1,951.64 1,648.45 44
9/23/2017 12 AM EDT 1,951.64 1,650.23 1,228
9/23/2017 1 AM EDT 1,951.64 1,648.56 46
9/23/2017 2 AM EDT 1,951.64 1,648.17 0
9/23/2017 3 AM EDT 1,951.64 1,647.86 0

Elevations are in feet above sea level. Discharges are in cubic feet per second and are reported at the end of the hour.